createdAt,value
2023-01-15T00:00:15.572Z,36.75
2023-01-15T00:02:43.537Z,36.94
2023-01-15T00:05:11.524Z,36.69
2023-01-15T00:07:40.876Z,36.80
2023-01-15T00:10:10.200Z,36.72
2023-01-15T00:12:38.134Z,36.82
2023-01-15T00:15:09.407Z,37.01
2023-01-15T00:17:37.338Z,36.81
2023-01-15T00:20:05.944Z,36.75
2023-01-15T00:22:33.891Z,36.66
2023-01-15T00:25:20.659Z,36.75
2023-01-15T00:27:48.603Z,37.07
2023-01-15T00:30:16.761Z,36.95
2023-01-15T00:32:44.836Z,36.68
2023-01-15T00:35:14.484Z,36.91
2023-01-15T00:37:42.403Z,36.51
2023-01-15T00:40:12.945Z,36.71
2023-01-15T00:42:40.815Z,36.97
2023-01-15T00:45:11.030Z,36.78
2023-01-15T00:47:39.110Z,36.49
2023-01-15T00:50:08.499Z,36.77
2023-01-15T00:52:36.389Z,36.91
2023-01-15T00:55:04.421Z,36.70
2023-01-15T00:57:33.699Z,36.90
2023-01-15T01:00:01.998Z,36.87
2023-01-15T01:02:29.965Z,37.01
2023-01-15T01:05:00.827Z,36.92
2023-01-15T01:07:28.740Z,36.71
2023-01-15T01:09:56.714Z,36.49
2023-01-15T01:12:24.713Z,36.66
2023-01-15T01:14:54.059Z,36.97
2023-01-15T01:17:21.981Z,36.63
2023-01-15T01:19:50.626Z,36.97
2023-01-15T01:22:18.622Z,36.69
2023-01-15T01:24:46.541Z,36.78
2023-01-15T01:27:14.492Z,36.66
2023-01-15T01:29:42.383Z,36.76
2023-01-15T01:32:11.711Z,36.70
2023-01-15T01:34:39.706Z,36.66
2023-01-15T01:37:07.728Z,36.73
2023-01-15T01:39:35.853Z,36.87
2023-01-15T01:42:03.714Z,36.45
2023-01-15T01:45:00.000Z,36.67
2023-01-15T01:47:29.274Z,36.80
2023-01-15T01:49:59.897Z,36.91
2023-01-15T01:52:28.850Z,36.53
2023-01-15T01:54:56.738Z,36.75
2023-01-15T01:57:24.682Z,36.50
2023-01-15T01:59:52.549Z,36.93
2023-01-15T02:02:21.648Z,36.65
2023-01-15T02:04:51.004Z,36.57
2023-01-15T02:07:18.884Z,36.71
2023-01-15T02:09:47.068Z,36.54
2023-01-15T02:12:25.563Z,36.58
2023-01-15T02:14:58.743Z,36.40
2023-01-15T02:17:29.143Z,36.28
2023-01-15T02:20:10.390Z,36.37
2023-01-15T02:22:54.563Z,36.64
2023-01-15T02:25:25.656Z,36.64
2023-01-15T02:27:56.468Z,36.43
2023-01-15T02:30:26.589Z,36.52
2023-01-15T02:32:55.235Z,36.37
2023-01-15T02:35:24.443Z,36.68
2023-01-15T02:37:53.238Z,36.77
2023-01-15T02:40:22.344Z,36.58
2023-01-15T02:42:50.550Z,36.30
2023-01-15T02:45:24.156Z,36.74
2023-01-15T02:47:52.178Z,36.46
2023-01-15T02:50:21.240Z,36.30
2023-01-15T02:52:50.670Z,36.45
2023-01-15T02:55:20.272Z,36.27
2023-01-15T02:57:48.506Z,36.26
2023-01-15T03:00:17.458Z,36.51
2023-01-15T03:02:49.004Z,36.60
2023-01-15T03:05:19.378Z,36.52
2023-01-15T03:07:49.409Z,36.59
2023-01-15T03:10:17.619Z,36.36
2023-01-15T03:13:06.083Z,36.26
2023-01-15T03:16:06.271Z,36.60
2023-01-15T03:18:38.602Z,36.34
2023-01-15T03:21:08.316Z,36.33
2023-01-15T03:23:36.991Z,36.52
2023-01-15T03:26:07.968Z,36.55
2023-01-15T03:28:37.125Z,36.24
2023-01-15T03:31:05.545Z,36.55
2023-01-15T03:33:33.444Z,36.29
2023-01-15T03:36:02.757Z,36.27
2023-01-15T03:38:31.633Z,36.45
2023-01-15T03:41:04.594Z,36.03
2023-01-15T03:43:42.023Z,36.44
2023-01-15T03:46:18.286Z,36.27
2023-01-15T03:48:50.060Z,36.09
2023-01-15T03:51:22.790Z,36.23
2023-01-15T03:53:51.829Z,36.17
2023-01-15T03:56:25.155Z,36.00
2023-01-15T03:58:54.640Z,36.24
2023-01-15T04:01:28.187Z,36.49
2023-01-15T04:03:56.122Z,36.36
2023-01-15T04:06:26.566Z,36.06
2023-01-15T04:08:54.770Z,35.99
2023-01-15T04:11:23.573Z,36.17
2023-01-15T04:13:51.536Z,36.18
2023-01-15T04:16:21.090Z,36.16
2023-01-15T04:18:49.233Z,36.21
2023-01-15T04:21:17.105Z,36.00
2023-01-15T04:23:46.415Z,36.09
2023-01-15T04:26:14.283Z,36.08
2023-01-15T04:28:42.204Z,36.02
2023-01-15T04:31:10.470Z,35.87
2023-01-15T04:33:39.182Z,36.12
2023-01-15T04:36:07.676Z,35.77
2023-01-15T04:38:35.585Z,36.13
2023-01-15T04:41:23.785Z,35.74
2023-01-15T04:44:09.814Z,36.34
2023-01-15T04:46:38.469Z,35.99
2023-01-15T04:49:06.775Z,36.05
2023-01-15T04:51:34.697Z,35.83
2023-01-15T04:54:03.768Z,35.91
2023-01-15T04:56:33.111Z,35.86
2023-01-15T04:59:02.545Z,35.99
2023-01-15T05:01:30.569Z,36.11
2023-01-15T05:03:59.008Z,35.71
2023-01-15T05:06:26.883Z,35.81
2023-01-15T05:08:55.092Z,35.91
2023-01-15T05:11:22.978Z,35.84
2023-01-15T05:13:52.319Z,36.03
2023-01-15T05:16:21.754Z,36.07
2023-01-15T05:18:49.667Z,35.74
2023-01-15T05:21:20.657Z,35.97
2023-01-15T05:23:48.600Z,35.67
2023-01-15T05:26:16.451Z,36.02
2023-01-15T05:28:44.395Z,35.96
2023-01-15T05:31:15.060Z,35.97
2023-01-15T05:33:43.480Z,35.57
2023-01-15T05:36:12.324Z,36.02
2023-01-15T05:38:40.225Z,35.98
2023-01-15T05:41:29.697Z,35.77
2023-01-15T05:43:57.712Z,35.54
2023-01-15T05:46:27.079Z,35.41
2023-01-15T05:48:55.303Z,35.94
2023-01-15T05:51:23.271Z,35.96
2023-01-15T05:53:51.175Z,35.96
2023-01-15T05:56:19.132Z,35.65
2023-01-15T05:58:47.067Z,35.62
2023-01-15T06:01:15.308Z,35.85
2023-01-15T06:03:44.666Z,35.86
2023-01-15T06:06:14.197Z,35.83
2023-01-15T06:08:42.177Z,35.76
2023-01-15T06:11:11.278Z,35.92
2023-01-15T06:13:39.442Z,35.50
2023-01-15T06:16:07.509Z,35.49
2023-01-15T06:18:35.901Z,35.77
2023-01-15T06:21:05.878Z,35.49
2023-01-15T06:23:36.556Z,35.53
2023-01-15T06:26:04.992Z,35.67
2023-01-15T06:28:32.966Z,35.25
2023-01-15T06:31:01.170Z,35.44
2023-01-15T06:33:29.043Z,35.61
2023-01-15T06:35:56.926Z,35.36
2023-01-15T06:38:26.246Z,35.52
2023-01-15T06:40:54.443Z,35.37
2023-01-15T06:43:39.608Z,35.43
2023-01-15T06:46:23.643Z,35.32
2023-01-15T06:48:52.243Z,35.17
2023-01-15T06:51:21.373Z,35.55
2023-01-15T06:53:50.647Z,35.48
2023-01-15T06:56:18.593Z,35.60
2023-01-15T06:58:46.465Z,35.19
2023-01-15T07:01:15.543Z,35.49
2023-01-15T07:03:43.579Z,35.27
2023-01-15T07:06:13.632Z,35.38
2023-01-15T07:08:41.599Z,35.36
2023-01-15T07:11:11.205Z,35.52
2023-01-15T07:13:39.089Z,35.65
2023-01-15T07:16:26.866Z,35.50
2023-01-15T07:18:55.649Z,35.35
2023-01-15T07:21:23.721Z,35.09
2023-01-15T07:23:51.723Z,35.29
2023-01-15T07:26:21.007Z,35.20
2023-01-15T07:28:48.894Z,35.58
2023-01-15T07:31:16.846Z,35.26
2023-01-15T07:33:44.921Z,35.15
2023-01-15T07:36:12.825Z,35.53
2023-01-15T07:38:40.720Z,35.09
2023-01-15T07:41:26.103Z,35.39
2023-01-15T07:46:50.371Z,35.15
2023-01-15T07:49:36.011Z,35.28
2023-01-15T07:52:03.906Z,35.27
2023-01-15T07:54:31.755Z,35.42
2023-01-15T07:56:59.600Z,35.24
2023-01-15T07:59:27.482Z,35.40
2023-01-15T08:01:57.133Z,35.07
2023-01-15T08:04:25.017Z,35.09
2023-01-15T08:06:52.951Z,34.99
2023-01-15T08:09:20.867Z,35.08
2023-01-15T08:12:08.442Z,35.45
2023-01-15T08:14:53.614Z,35.20
2023-01-15T08:17:22.874Z,35.48
2023-01-15T08:19:50.773Z,35.27
2023-01-15T08:22:18.994Z,35.34
2023-01-15T08:24:46.946Z,35.24
2023-01-15T08:27:14.948Z,35.25
2023-01-15T08:29:42.807Z,35.28
2023-01-15T08:32:11.066Z,35.21
2023-01-15T08:34:40.514Z,35.10
2023-01-15T08:37:08.397Z,35.08
2023-01-15T08:39:36.348Z,35.34
2023-01-15T08:42:04.757Z,35.01
2023-01-15T08:44:33.127Z,34.87
2023-01-15T08:47:01.152Z,34.87
2023-01-15T08:49:29.153Z,34.80
2023-01-15T08:51:58.732Z,35.19
2023-01-15T08:54:26.648Z,35.23
2023-01-15T08:56:54.540Z,35.29
2023-01-15T08:59:22.420Z,35.04
2023-01-15T09:01:50.816Z,35.13
2023-01-15T09:04:19.572Z,35.06
2023-01-15T09:06:47.503Z,34.96
2023-01-15T09:09:18.808Z,35.13
2023-01-15T09:11:46.989Z,34.78
2023-01-15T09:14:59.563Z,34.96
2023-01-15T09:17:03.606Z,34.82
2023-01-15T09:19:31.568Z,34.77
2023-01-15T09:21:59.763Z,35.00
2023-01-15T09:24:29.188Z,35.13
2023-01-15T09:26:57.064Z,34.93
2023-01-15T09:29:24.930Z,34.85
2023-01-15T09:31:53.154Z,34.82
2023-01-15T09:34:21.084Z,35.17
2023-01-15T09:36:50.868Z,34.93
2023-01-15T09:39:18.835Z,35.09
2023-01-15T09:42:09.015Z,35.01
2023-01-15T09:44:46.535Z,34.87
2023-01-15T09:47:16.384Z,34.85
2023-01-15T09:50:05.775Z,34.92
2023-01-15T09:52:42.697Z,34.91
2023-01-15T09:55:13.649Z,34.93
2023-01-15T09:57:43.219Z,35.02
2023-01-15T10:00:16.193Z,35.04
2023-01-15T10:02:45.377Z,34.96
2023-01-15T10:05:18.371Z,35.02
2023-01-15T10:07:47.841Z,35.13
2023-01-15T10:10:18.192Z,34.90
2023-01-15T10:12:48.342Z,34.79
2023-01-15T10:15:20.762Z,34.71
2023-01-15T10:17:49.168Z,35.11
2023-01-15T10:20:19.534Z,34.79
2023-01-15T10:23:12.489Z,34.84
2023-01-15T10:25:43.722Z,35.04
2023-01-15T10:28:19.865Z,34.91
2023-01-15T10:30:48.961Z,35.08
2023-01-15T10:33:40.613Z,34.94
2023-01-15T10:36:09.307Z,35.11
2023-01-15T10:38:39.607Z,34.91
2023-01-15T10:41:44.056Z,34.70
2023-01-15T10:44:16.115Z,34.75
2023-01-15T10:46:43.981Z,34.96
2023-01-15T10:49:14.149Z,34.82
2023-01-15T10:51:44.101Z,35.08
2023-01-15T10:54:16.132Z,35.10
2023-01-15T10:56:45.849Z,35.20
2023-01-15T10:59:17.616Z,34.75
2023-01-15T11:01:45.926Z,35.05
2023-01-15T11:04:14.405Z,35.17
2023-01-15T11:06:42.547Z,34.87
2023-01-15T11:09:17.301Z,34.87
2023-01-15T11:12:03.210Z,35.09
2023-01-15T11:14:53.700Z,34.87
2023-01-15T11:17:39.073Z,34.62
2023-01-15T11:20:12.278Z,34.91
2023-01-15T11:22:40.417Z,34.56
2023-01-15T11:25:10.825Z,34.74
2023-01-15T11:27:38.745Z,34.82
2023-01-15T11:30:25.291Z,34.60
2023-01-15T11:32:56.318Z,34.70
2023-01-15T11:35:24.213Z,34.95
2023-01-15T11:38:02.191Z,34.90
2023-01-15T11:40:30.111Z,34.89
2023-01-15T11:43:15.728Z,34.92
2023-01-15T11:46:09.449Z,34.89
2023-01-15T11:49:02.170Z,34.63
2023-01-15T11:51:30.758Z,34.93
2023-01-15T11:54:02.964Z,34.99
2023-01-15T11:56:31.356Z,34.72
2023-01-15T11:59:00.271Z,34.83
2023-01-15T12:01:30.817Z,35.00
2023-01-15T12:03:59.535Z,34.97
2023-01-15T12:06:27.739Z,34.89
2023-01-15T12:08:58.287Z,34.55
2023-01-15T12:11:47.245Z,34.46
2023-01-15T12:14:37.119Z,34.57
2023-01-15T12:17:11.258Z,34.57
2023-01-15T12:19:41.823Z,34.54
2023-01-15T12:22:24.655Z,34.52
2023-01-15T12:25:13.415Z,34.87
2023-01-15T12:27:52.405Z,34.52
2023-01-15T12:30:24.583Z,34.52
2023-01-15T12:32:59.709Z,34.70
2023-01-15T12:35:30.627Z,34.45
2023-01-15T12:38:00.211Z,34.49
2023-01-15T12:40:29.795Z,34.66
2023-01-15T12:43:26.912Z,34.30
2023-01-15T12:45:57.284Z,34.60
2023-01-15T12:48:30.136Z,34.80
2023-01-15T12:50:58.843Z,34.80
2023-01-15T12:53:28.853Z,34.74
2023-01-15T12:55:58.898Z,35.06
2023-01-15T12:58:40.532Z,34.84
2023-01-15T13:01:13.797Z,34.68
2023-01-15T13:03:51.142Z,35.23
2023-01-15T13:06:19.079Z,35.23
2023-01-15T13:08:51.619Z,35.23
2023-01-15T13:11:19.522Z,35.42
2023-01-15T13:13:58.109Z,35.02
2023-01-15T13:16:31.475Z,35.41
2023-01-15T13:19:10.612Z,35.30
2023-01-15T13:21:38.546Z,35.30
2023-01-15T13:24:28.951Z,35.25
2023-01-15T13:27:06.618Z,35.25
2023-01-15T13:29:44.428Z,35.38
2023-01-15T13:32:14.989Z,35.44
2023-01-15T13:34:45.781Z,35.51
2023-01-15T13:37:21.733Z,35.32
2023-01-15T13:39:49.667Z,35.91
2023-01-15T13:42:34.507Z,35.65
2023-01-15T13:45:26.614Z,35.69
2023-01-15T13:47:56.204Z,35.93
2023-01-15T13:50:29.149Z,35.90
2023-01-15T13:53:02.764Z,35.58
2023-01-15T13:55:32.124Z,35.72
2023-01-15T13:57:59.988Z,36.09
2023-01-15T14:00:29.949Z,35.88
2023-01-15T14:02:58.290Z,35.75
2023-01-15T14:05:30.989Z,35.58
2023-01-15T14:07:58.959Z,35.67
2023-01-15T14:10:38.634Z,35.75
2023-01-15T14:13:46.872Z,36.29
2023-01-15T14:16:19.992Z,35.93
2023-01-15T14:19:03.374Z,35.76
2023-01-15T14:21:38.703Z,35.74
2023-01-15T14:24:46.286Z,35.71
2023-01-15T14:27:17.588Z,36.34
2023-01-15T14:29:56.165Z,36.09
2023-01-15T14:32:29.922Z,36.02
2023-01-15T14:34:58.322Z,35.94
2023-01-15T14:37:30.122Z,36.33
2023-01-15T14:39:58.896Z,36.11
2023-01-15T14:42:45.653Z,35.94
2023-01-15T14:45:19.660Z,36.22
2023-01-15T14:47:48.624Z,36.09
2023-01-15T14:50:25.039Z,36.47
2023-01-15T14:52:55.829Z,36.23
2023-01-15T14:55:23.757Z,36.20
2023-01-15T14:57:57.354Z,36.46
2023-01-15T15:00:25.560Z,36.53
2023-01-15T15:02:53.869Z,36.56
2023-01-15T15:05:22.270Z,36.77
2023-01-15T15:07:52.859Z,37.01
2023-01-15T15:10:25.304Z,36.73
2023-01-15T15:12:56.246Z,37.02
2023-01-15T15:15:31.326Z,36.84
2023-01-15T15:18:02.312Z,36.76
2023-01-15T15:20:33.725Z,37.33
2023-01-15T15:23:05.547Z,37.29
2023-01-15T15:25:39.445Z,36.83
2023-01-15T15:28:08.153Z,37.14
2023-01-15T15:30:37.137Z,37.22
2023-01-15T15:33:05.637Z,37.22
2023-01-15T15:35:33.724Z,37.09
2023-01-15T15:38:04.440Z,37.59
2023-01-15T15:40:33.483Z,37.49
2023-01-15T15:43:24.028Z,37.38
2023-01-15T15:46:10.336Z,37.32
2023-01-15T15:48:45.834Z,37.61
2023-01-15T15:51:31.369Z,37.80
2023-01-15T15:54:07.439Z,37.63
2023-01-15T15:56:35.309Z,37.84
2023-01-15T15:59:05.456Z,37.69
2023-01-15T16:01:38.593Z,37.76
2023-01-15T16:04:06.584Z,38.05
2023-01-15T16:06:35.210Z,37.93
2023-01-15T16:09:04.896Z,37.89
2023-01-15T16:11:32.899Z,37.90
2023-01-15T16:14:01.468Z,38.08
2023-01-15T16:16:30.804Z,38.43
2023-01-15T16:18:59.839Z,37.87
2023-01-15T16:21:29.352Z,38.01
2023-01-15T16:23:57.954Z,38.38
2023-01-15T16:26:31.086Z,38.17
2023-01-15T16:28:59.530Z,38.38
2023-01-15T16:31:28.754Z,38.20
2023-01-15T16:33:58.466Z,38.45
2023-01-15T16:36:26.766Z,38.55
2023-01-15T16:38:55.156Z,38.54
2023-01-15T16:41:28.373Z,38.23
2023-01-15T16:43:57.282Z,38.13
2023-01-15T16:46:25.709Z,38.20
2023-01-15T16:49:21.179Z,38.23
2023-01-15T16:51:49.468Z,38.39
2023-01-15T16:54:45.893Z,38.63
2023-01-15T16:57:37.523Z,38.47
2023-01-15T17:00:10.233Z,38.71
2023-01-15T17:02:47.355Z,38.41
2023-01-15T17:05:26.282Z,38.42
2023-01-15T17:07:55.610Z,38.43
2023-01-15T17:10:25.200Z,38.58
2023-01-15T17:12:55.057Z,38.92
2023-01-15T17:15:46.875Z,38.93
2023-01-15T17:18:22.616Z,38.81
2023-01-15T17:20:51.907Z,39.09
2023-01-15T17:23:20.296Z,39.09
2023-01-15T17:25:48.457Z,38.77
2023-01-15T17:28:18.162Z,38.93
2023-01-15T17:30:48.335Z,39.00
2023-01-15T17:33:16.657Z,38.77
2023-01-15T17:35:48.393Z,38.98
2023-01-15T17:38:18.616Z,39.09
2023-01-15T17:40:46.529Z,38.75
2023-01-15T17:43:15.899Z,39.30
2023-01-15T17:45:43.851Z,39.25
2023-01-15T17:48:13.566Z,39.03
2023-01-15T17:50:42.266Z,39.15
2023-01-15T17:53:10.585Z,39.35
2023-01-15T17:55:57.389Z,39.28
2023-01-15T17:58:42.705Z,38.92
2023-01-15T18:01:34.603Z,39.27
2023-01-15T18:04:19.915Z,39.14
2023-01-15T18:06:49.550Z,39.00
2023-01-15T18:09:17.492Z,39.06
2023-01-15T18:11:47.417Z,38.93
2023-01-15T18:14:15.333Z,38.95
2023-01-15T18:16:43.178Z,39.13
2023-01-15T18:19:11.081Z,39.30
2023-01-15T18:21:40.260Z,39.05
2023-01-15T18:24:09.427Z,39.34
2023-01-15T18:26:38.500Z,39.41
2023-01-15T18:29:08.465Z,39.42
2023-01-15T18:31:37.794Z,39.04
2023-01-15T18:34:05.752Z,39.36
2023-01-15T18:36:33.913Z,39.37
2023-01-15T18:39:06.251Z,39.59
2023-01-15T18:41:52.035Z,39.43
2023-01-15T18:44:39.551Z,39.31
2023-01-15T18:47:09.849Z,39.56
2023-01-15T18:49:37.764Z,39.33
2023-01-15T18:52:23.852Z,39.17
2023-01-15T18:54:51.756Z,39.21
2023-01-15T18:57:19.669Z,39.75
2023-01-15T18:59:49.031Z,39.74
2023-01-15T19:02:17.363Z,39.68
2023-01-15T19:04:45.295Z,39.88
2023-01-15T19:07:13.190Z,39.84
2023-01-15T19:09:41.064Z,39.80
2023-01-15T19:12:09.549Z,39.95
2023-01-15T19:14:54.806Z,39.99
2023-01-15T19:17:42.866Z,40.11
2023-01-15T19:20:11.878Z,39.70
2023-01-15T19:22:57.486Z,40.16
2023-01-15T19:25:25.979Z,40.12
2023-01-15T19:27:55.228Z,40.11
2023-01-15T19:30:23.252Z,40.01
2023-01-15T19:32:52.839Z,40.13
2023-01-15T19:35:20.720Z,40.19
2023-01-15T19:37:49.439Z,40.23
2023-01-15T19:40:19.474Z,40.20
2023-01-15T19:43:04.777Z,40.20
2023-01-15T19:45:50.201Z,40.04
2023-01-15T19:48:37.031Z,40.22
2023-01-15T19:51:05.078Z,40.38
2023-01-15T19:53:34.523Z,39.95
2023-01-15T19:56:03.435Z,40.14
2023-01-15T19:58:32.942Z,40.30
2023-01-15T20:01:00.994Z,40.25
2023-01-15T20:03:30.617Z,40.46
2023-01-15T20:05:58.589Z,40.40
2023-01-15T20:08:26.628Z,40.23
2023-01-15T20:10:54.530Z,40.25
2023-01-15T20:13:41.580Z,40.15
2023-01-15T20:16:10.790Z,40.43
2023-01-15T20:18:40.177Z,40.47
2023-01-15T20:21:08.068Z,40.38
2023-01-15T20:23:37.370Z,40.36
2023-01-15T20:26:05.894Z,40.40
2023-01-15T20:28:35.980Z,40.70
2023-01-15T20:31:03.966Z,40.76
2023-01-15T20:33:32.135Z,41.00
2023-01-15T20:36:04.298Z,40.53
2023-01-15T20:38:32.856Z,40.70
2023-01-15T20:41:21.519Z,40.65
2023-01-15T20:44:06.845Z,40.58
2023-01-15T20:46:34.939Z,41.04
2023-01-15T20:49:19.892Z,40.71
2023-01-15T20:51:49.998Z,40.73
2023-01-15T20:54:17.880Z,40.76
2023-01-15T20:56:45.780Z,40.94
2023-01-15T20:59:13.712Z,40.92
2023-01-15T21:01:42.044Z,41.00
2023-01-15T21:04:10.651Z,41.08
2023-01-15T21:06:38.627Z,41.01
2023-01-15T21:09:08.091Z,41.16
2023-01-15T21:11:36.604Z,40.91
2023-01-15T21:14:04.514Z,41.05
2023-01-15T21:16:32.530Z,40.93
2023-01-15T21:19:03.943Z,41.17
2023-01-15T21:21:31.885Z,41.01
2023-01-15T21:24:00.907Z,41.05
2023-01-15T21:26:31.003Z,40.98
2023-01-15T21:28:58.970Z,41.35
2023-01-15T21:31:26.876Z,41.31
2023-01-15T21:33:55.198Z,41.04
2023-01-15T21:36:23.172Z,41.51
2023-01-15T21:38:51.596Z,41.24
2023-01-15T21:41:19.522Z,41.24
2023-01-15T21:44:15.051Z,41.25
2023-01-15T21:46:42.967Z,41.27
2023-01-15T21:49:10.844Z,41.22
2023-01-15T21:51:39.031Z,41.17
2023-01-15T21:54:07.011Z,41.45
2023-01-15T21:56:34.935Z,41.30
2023-01-15T21:59:04.263Z,41.66
2023-01-15T22:01:32.235Z,41.61
2023-01-15T22:04:01.300Z,41.74
2023-01-15T22:06:29.185Z,41.57
2023-01-15T22:08:57.049Z,41.69
2023-01-15T22:11:25.025Z,41.69
2023-01-15T22:13:53.340Z,41.78
2023-01-15T22:16:22.666Z,41.74
2023-01-15T22:18:50.577Z,41.49
2023-01-15T22:21:18.513Z,41.61
2023-01-15T22:23:49.008Z,41.78
2023-01-15T22:26:18.090Z,41.78
2023-01-15T22:28:46.007Z,41.81
2023-01-15T22:31:14.566Z,41.46
2023-01-15T22:33:44.216Z,41.57
2023-01-15T22:36:13.942Z,42.08
2023-01-15T22:38:41.832Z,41.67
2023-01-15T22:41:09.771Z,41.86
2023-01-15T22:43:38.292Z,41.48
2023-01-15T22:46:10.252Z,41.99
2023-01-15T22:48:38.195Z,41.83
2023-01-15T22:51:07.757Z,42.09
2023-01-15T22:53:36.362Z,41.68
2023-01-15T22:56:04.469Z,41.96
2023-01-15T22:58:32.394Z,42.01
2023-01-15T23:01:00.654Z,41.55
2023-01-15T23:03:28.848Z,41.46
2023-01-15T23:05:56.746Z,41.86
2023-01-15T23:08:33.131Z,41.91
2023-01-15T23:11:01.313Z,41.71
2023-01-15T23:13:31.679Z,41.46
2023-01-15T23:16:00.120Z,41.66
2023-01-15T23:18:30.466Z,41.49
2023-01-15T23:20:58.378Z,41.69
2023-01-15T23:23:28.308Z,41.69
2023-01-15T23:25:56.164Z,41.92
2023-01-15T23:28:24.092Z,41.63
2023-01-15T23:30:52.034Z,41.52
2023-01-15T23:33:20.287Z,41.92
2023-01-15T23:35:48.151Z,41.56
2023-01-15T23:38:16.340Z,41.91
2023-01-15T23:40:45.680Z,41.36
2023-01-15T23:43:32.043Z,41.67
2023-01-15T23:46:16.622Z,41.29
2023-01-15T23:48:44.625Z,41.56
2023-01-15T23:51:12.529Z,41.67
2023-01-15T23:53:40.686Z,41.75
2023-01-15T23:56:10.001Z,41.69
2023-01-15T23:58:37.860Z,41.47
